createdAt,value
2019-02-24T00:02:18.197Z,45.54
2019-02-24T00:04:51.135Z,45.89
2019-02-24T00:07:21.707Z,45.65
2019-02-24T00:09:52.165Z,46.01
2019-02-24T00:12:22.815Z,46.23
2019-02-24T00:14:55.167Z,46.43
2019-02-24T00:17:33.945Z,46.61
2019-02-24T00:20:02.781Z,46.47
2019-02-24T00:22:33.431Z,46.19
2019-02-24T00:25:07.071Z,46.37
2019-02-24T00:27:41.146Z,46.34
2019-02-24T00:30:11.447Z,45.69
2019-02-24T00:32:41.997Z,45.69
2019-02-24T00:35:15.378Z,46.00
2019-02-24T00:37:45.910Z,45.89
2019-02-24T00:40:18.002Z,45.95
2019-02-24T00:42:48.659Z,45.58
2019-02-24T00:45:19.045Z,45.45
2019-02-24T00:47:52.320Z,45.09
2019-02-24T00:50:22.580Z,44.81
2019-02-24T00:52:53.914Z,44.76
2019-02-24T00:55:24.223Z,44.44
2019-02-24T00:57:54.885Z,44.06
2019-02-24T01:00:25.451Z,43.75
2019-02-24T01:02:57.420Z,43.35
2019-02-24T01:05:27.793Z,42.89
2019-02-24T01:07:58.090Z,43.05
2019-02-24T01:10:32.916Z,43.01
2019-02-24T01:13:03.196Z,42.94
2019-02-24T01:15:33.835Z,43.03
2019-02-24T01:18:05.366Z,43.09
2019-02-24T01:20:35.647Z,43.13
2019-02-24T01:23:05.971Z,43.07
2019-02-24T01:25:36.273Z,42.90
2019-02-24T01:28:06.591Z,42.43
2019-02-24T01:30:39.310Z,42.09
2019-02-24T01:33:09.666Z,41.92
2019-02-24T01:35:40.227Z,42.22
2019-02-24T01:38:10.806Z,42.57
2019-02-24T01:40:44.588Z,42.58
2019-02-24T01:43:15.193Z,42.46
2019-02-24T01:45:48.275Z,42.67
2019-02-24T01:48:22.318Z,42.56
2019-02-24T01:50:52.782Z,42.37
2019-02-24T01:53:24.744Z,42.18
2019-02-24T01:55:57.997Z,42.02
2019-02-24T01:58:34.858Z,41.86
2019-02-24T02:01:00.556Z,41.60
2019-02-24T02:03:30.944Z,41.57
2019-02-24T02:06:02.264Z,41.54
2019-02-24T02:08:32.606Z,41.75
2019-02-24T02:11:10.963Z,41.82
2019-02-24T02:13:39.807Z,41.81
2019-02-24T02:16:12.060Z,41.32
2019-02-24T02:18:42.365Z,40.98
2019-02-24T02:21:12.979Z,41.35
2019-02-24T02:23:44.955Z,41.35
2019-02-24T02:26:15.527Z,41.84
2019-02-24T02:28:46.001Z,42.22
2019-02-24T02:31:17.819Z,42.16
2019-02-24T02:33:48.143Z,42.16
2019-02-24T02:36:18.427Z,41.86
2019-02-24T02:38:49.938Z,41.99
2019-02-24T02:41:21.969Z,41.82
2019-02-24T02:43:52.292Z,41.86
2019-02-24T02:46:26.970Z,41.57
2019-02-24T02:48:58.379Z,41.69
2019-02-24T02:51:31.604Z,41.98
2019-02-24T02:54:04.856Z,42.50
2019-02-24T02:56:38.947Z,42.80
2019-02-24T02:59:09.478Z,42.26
2019-02-24T03:01:43.145Z,41.91
2019-02-24T03:04:16.450Z,41.78
2019-02-24T03:07:01.524Z,41.73
2019-02-24T03:09:31.914Z,42.06
2019-02-24T03:12:04.135Z,43.02
2019-02-24T03:14:34.541Z,43.02
2019-02-24T03:17:05.070Z,42.44
2019-02-24T03:19:36.560Z,42.18
2019-02-24T03:22:06.870Z,41.32
2019-02-24T03:24:37.158Z,40.96
2019-02-24T03:27:08.058Z,40.82
2019-02-24T03:29:38.337Z,41.04
2019-02-24T03:32:09.957Z,41.25
2019-02-24T03:34:40.292Z,41.23
2019-02-24T03:37:12.180Z,40.94
2019-02-24T03:39:42.492Z,41.15
2019-02-24T03:42:16.126Z,41.02
2019-02-24T03:44:47.758Z,41.17
2019-02-24T03:47:18.081Z,41.10
2019-02-24T03:49:48.600Z,41.07
2019-02-24T03:52:18.873Z,41.26
2019-02-24T03:54:50.942Z,40.95
2019-02-24T03:57:22.336Z,40.74
2019-02-24T03:59:52.730Z,40.65
2019-02-24T04:02:23.278Z,40.53
2019-02-24T04:04:55.170Z,40.64
2019-02-24T04:07:25.446Z,40.47
2019-02-24T04:10:06.250Z,40.26
2019-02-24T04:12:40.545Z,40.26
2019-02-24T04:15:10.816Z,40.13
2019-02-24T04:17:41.140Z,40.31
2019-02-24T04:20:11.720Z,40.59
2019-02-24T04:22:42.014Z,40.60
2019-02-24T04:25:12.647Z,40.75
2019-02-24T04:27:42.948Z,40.74
2019-02-24T04:30:13.389Z,40.44
2019-02-24T04:32:43.714Z,40.09
2019-02-24T04:35:14.567Z,40.07
2019-02-24T04:37:45.189Z,39.76
2019-02-24T04:40:19.223Z,39.87
2019-02-24T04:42:49.596Z,39.70
2019-02-24T04:45:20.200Z,40.04
2019-02-24T04:47:50.558Z,39.98
2019-02-24T04:50:21.124Z,40.13
2019-02-24T04:52:52.633Z,40.15
2019-02-24T04:55:23.219Z,40.53
2019-02-24T04:57:53.548Z,40.47
2019-02-24T05:00:25.933Z,40.49
2019-02-24T05:02:56.398Z,40.79
2019-02-24T05:05:27.034Z,40.45
2019-02-24T05:07:57.575Z,41.23
2019-02-24T05:10:29.474Z,41.52
2019-02-24T05:13:01.631Z,42.00
2019-02-24T05:15:32.209Z,42.44
2019-02-24T05:18:03.720Z,42.99
2019-02-24T05:20:35.551Z,43.17
2019-02-24T05:23:05.896Z,43.27
2019-02-24T05:25:36.459Z,43.36
2019-02-24T05:28:07.062Z,43.44
2019-02-24T05:30:38.659Z,43.29
2019-02-24T05:33:09.009Z,43.66
2019-02-24T05:35:40.647Z,43.66
2019-02-24T05:38:11.181Z,43.67
2019-02-24T05:40:44.342Z,43.60
2019-02-24T05:43:14.898Z,43.19
2019-02-24T05:45:45.218Z,43.28
2019-02-24T05:48:17.322Z,42.86
2019-02-24T05:50:47.604Z,42.37
2019-02-24T05:53:18.226Z,41.98
2019-02-24T05:55:48.502Z,41.71
2019-02-24T05:58:22.919Z,41.40
2019-02-24T06:00:53.352Z,41.54
2019-02-24T06:03:23.897Z,41.73
2019-02-24T06:05:56.530Z,41.81
2019-02-24T06:08:26.818Z,41.97
2019-02-24T06:10:59.238Z,42.00
2019-02-24T06:13:31.128Z,42.02
2019-02-24T06:16:01.474Z,41.47
2019-02-24T06:18:32.356Z,41.24
2019-02-24T06:21:04.362Z,40.91
2019-02-24T06:23:36.369Z,41.23
2019-02-24T06:26:06.919Z,41.56
2019-02-24T06:28:40.404Z,41.86
2019-02-24T06:31:10.782Z,41.94
2019-02-24T06:33:42.844Z,41.70
2019-02-24T06:36:13.161Z,41.84
2019-02-24T06:38:44.203Z,42.28
2019-02-24T06:41:14.867Z,42.40
2019-02-24T06:43:48.262Z,42.18
2019-02-24T06:46:20.067Z,42.17
2019-02-24T06:48:54.193Z,42.15
2019-02-24T06:51:24.491Z,42.13
2019-02-24T06:53:57.288Z,41.88
2019-02-24T06:56:27.750Z,41.69
2019-02-24T06:58:58.902Z,41.41
2019-02-24T07:01:29.225Z,40.00
2019-02-24T07:04:02.053Z,39.40
2019-02-24T07:06:33.660Z,38.82
2019-02-24T07:09:07.245Z,38.36
2019-02-24T07:11:40.331Z,38.04
2019-02-24T07:14:12.554Z,37.44
2019-02-24T07:16:42.877Z,36.82
2019-02-24T07:19:13.340Z,36.53
2019-02-24T07:21:44.887Z,35.80
2019-02-24T07:24:15.247Z,35.80
2019-02-24T07:26:45.554Z,36.34
2019-02-24T07:29:15.894Z,36.19
2019-02-24T07:31:46.497Z,35.10
2019-02-24T07:34:18.099Z,35.23
2019-02-24T07:36:48.735Z,35.33
2019-02-24T07:39:19.159Z,35.38
2019-02-24T07:41:52.129Z,34.66
2019-02-24T07:44:22.475Z,35.00
2019-02-24T07:46:55.815Z,34.83
2019-02-24T07:49:32.142Z,34.27
2019-02-24T07:52:02.802Z,34.00
2019-02-24T07:54:33.098Z,34.00
2019-02-24T07:57:03.631Z,33.83
2019-02-24T07:59:35.074Z,33.15
2019-02-24T08:02:05.689Z,32.83
2019-02-24T08:04:36.043Z,32.18
2019-02-24T08:07:09.091Z,31.24
2019-02-24T08:09:39.666Z,30.98
2019-02-24T08:12:13.755Z,31.53
2019-02-24T08:14:46.430Z,31.13
2019-02-24T08:17:16.804Z,30.78
2019-02-24T08:19:48.609Z,30.69
2019-02-24T08:22:20.965Z,29.35
2019-02-24T08:24:51.200Z,22.02
2019-02-24T08:27:27.487Z,17.48
2019-02-24T08:30:02.537Z,15.13
2019-02-24T08:32:32.963Z,16.62
2019-02-24T08:35:03.373Z,18.83
2019-02-24T08:37:33.839Z,16.49
2019-02-24T08:40:04.466Z,16.54
2019-02-24T08:42:38.143Z,16.67
2019-02-24T08:45:08.676Z,15.72
2019-02-24T08:47:42.069Z,13.80
2019-02-24T08:50:13.746Z,13.39
2019-02-24T08:52:52.418Z,13.55
2019-02-24T08:55:19.611Z,14.07
2019-02-24T08:57:56.983Z,13.72
2019-02-24T09:00:29.028Z,15.01
2019-02-24T09:03:01.086Z,14.30
2019-02-24T09:05:31.958Z,14.11
2019-02-24T09:08:02.490Z,14.33
2019-02-24T09:10:33.124Z,14.55
2019-02-24T09:13:03.549Z,13.78
2019-02-24T09:15:35.474Z,13.32
2019-02-24T09:18:06.006Z,12.58
2019-02-24T09:20:38.646Z,12.82
2019-02-24T09:24:06.246Z,13.33
2019-02-24T09:27:07.427Z,12.96
2019-02-24T09:30:18.746Z,12.41
2019-02-24T09:33:53.141Z,12.92
2019-02-24T09:36:20.898Z,12.45
2019-02-24T09:38:51.902Z,11.78
2019-02-24T09:41:25.284Z,11.56
2019-02-24T09:44:01.914Z,11.27
2019-02-24T09:46:36.335Z,9.90
2019-02-24T09:49:06.921Z,10.19
2019-02-24T09:51:38.961Z,10.19
2019-02-24T09:54:09.686Z,9.40
2019-02-24T09:56:48.926Z,9.35
2019-02-24T09:59:21.191Z,9.03
2019-02-24T10:01:53.583Z,9.03
2019-02-24T10:04:24.545Z,9.24
2019-02-24T10:06:54.943Z,9.05
2019-02-24T10:09:27.135Z,8.62
2019-02-24T10:11:58.638Z,8.54
2019-02-24T10:14:34.412Z,8.77
2019-02-24T10:17:07.156Z,9.09
2019-02-24T10:19:37.495Z,9.04
2019-02-24T10:22:07.853Z,8.96
2019-02-24T10:24:38.482Z,9.73
2019-02-24T10:27:11.146Z,9.23
2019-02-24T10:29:43.561Z,9.19
2019-02-24T10:32:14.233Z,9.43
2019-02-24T10:34:47.805Z,9.79
2019-02-24T10:37:18.028Z,9.47
2019-02-24T10:39:52.272Z,9.19
2019-02-24T10:42:22.390Z,9.19
2019-02-24T10:44:55.292Z,8.89
2019-02-24T10:47:27.645Z,8.89
2019-02-24T10:50:01.859Z,9.24
2019-02-24T10:52:33.244Z,10.55
2019-02-24T10:55:04.216Z,12.90
2019-02-24T10:57:36.016Z,14.52
2019-02-24T11:00:11.174Z,15.81
2019-02-24T11:02:41.520Z,16.49
2019-02-24T11:05:19.717Z,17.12
2019-02-24T11:07:50.116Z,17.59
2019-02-24T11:10:20.779Z,18.02
2019-02-24T11:12:51.180Z,17.93
2019-02-24T11:15:21.763Z,18.09
2019-02-24T11:17:52.151Z,17.96
2019-02-24T11:20:26.904Z,18.10
2019-02-24T11:22:57.519Z,18.62
2019-02-24T11:25:27.926Z,17.77
2019-02-24T11:28:00.463Z,17.83
2019-02-24T11:30:31.029Z,17.94
2019-02-24T11:33:01.822Z,18.12
2019-02-24T11:35:32.543Z,18.08
2019-02-24T11:38:08.559Z,17.97
2019-02-24T11:40:40.918Z,17.83
2019-02-24T11:43:11.266Z,17.72
2019-02-24T11:45:41.646Z,18.23
2019-02-24T11:48:14.287Z,18.51
2019-02-24T11:50:48.666Z,18.14
2019-02-24T11:53:20.161Z,17.95
2019-02-24T11:55:52.414Z,18.18
2019-02-24T11:58:25.484Z,18.07
2019-02-24T12:00:58.782Z,18.32
2019-02-24T12:03:29.736Z,18.39
2019-02-24T12:06:00.270Z,18.31
2019-02-24T12:08:39.177Z,17.60
2019-02-24T12:11:05.047Z,17.47
2019-02-24T12:13:38.622Z,17.44
2019-02-24T12:16:13.937Z,17.59
2019-02-24T12:18:46.040Z,17.43
2019-02-24T12:21:23.522Z,17.49
2019-02-24T12:23:57.144Z,17.61
2019-02-24T12:26:29.493Z,17.79
2019-02-24T12:29:01.630Z,17.42
2019-02-24T12:31:33.809Z,16.82
2019-02-24T12:34:06.028Z,17.07
2019-02-24T12:36:39.655Z,17.51
2019-02-24T12:39:13.478Z,17.56
2019-02-24T12:41:44.077Z,17.42
2019-02-24T12:44:15.648Z,17.35
2019-02-24T12:46:49.467Z,17.52
2019-02-24T12:49:20.457Z,17.65
2019-02-24T12:51:50.801Z,17.65
2019-02-24T12:54:21.325Z,17.58
2019-02-24T12:56:51.976Z,16.75
2019-02-24T12:59:24.844Z,17.19
2019-02-24T13:01:55.651Z,17.35
2019-02-24T13:04:28.889Z,17.76
2019-02-24T13:06:59.710Z,17.73
2019-02-24T13:09:31.530Z,17.72
2019-02-24T13:12:02.941Z,17.81
2019-02-24T13:14:33.534Z,17.81
2019-02-24T13:17:07.876Z,17.78
2019-02-24T13:19:39.619Z,17.88
2019-02-24T13:22:10.273Z,18.10
2019-02-24T13:24:41.099Z,17.90
2019-02-24T13:27:11.617Z,17.91
2019-02-24T13:29:45.643Z,17.45
2019-02-24T13:32:16.648Z,17.39
2019-02-24T13:34:51.193Z,17.89
2019-02-24T13:37:24.330Z,17.91
2019-02-24T13:39:58.822Z,17.58
2019-02-24T13:42:29.078Z,17.61
2019-02-24T13:44:59.576Z,17.82
2019-02-24T13:47:31.302Z,17.79
2019-02-24T13:50:03.247Z,17.29
2019-02-24T13:52:34.159Z,16.92
2019-02-24T13:55:05.080Z,17.02
2019-02-24T13:57:35.648Z,17.02
2019-02-24T14:00:08.823Z,17.32
2019-02-24T14:02:39.420Z,17.11
2019-02-24T14:05:11.818Z,17.39
2019-02-24T14:07:43.359Z,17.51
2019-02-24T14:10:15.905Z,17.64
2019-02-24T14:12:46.411Z,17.43
2019-02-24T14:15:18.535Z,17.35
2019-02-24T14:17:56.729Z,17.22
2019-02-24T14:20:27.046Z,17.50
2019-02-24T14:22:57.552Z,17.24
2019-02-24T14:25:27.988Z,17.27
2019-02-24T14:27:58.826Z,17.54
2019-02-24T14:30:29.182Z,17.41
2019-02-24T14:32:59.897Z,17.74
2019-02-24T14:35:31.196Z,17.82
2019-02-24T14:38:04.214Z,17.62
2019-02-24T14:40:41.330Z,17.50
2019-02-24T14:43:11.918Z,17.55
2019-02-24T14:45:49.470Z,17.69
2019-02-24T14:48:18.331Z,17.94
2019-02-24T14:50:50.438Z,17.99
2019-02-24T14:53:20.777Z,17.76
2019-02-24T14:55:51.489Z,17.79
2019-02-24T14:58:21.827Z,17.86
2019-02-24T15:00:52.477Z,17.48
2019-02-24T15:03:28.191Z,17.62
2019-02-24T15:05:58.554Z,17.68
2019-02-24T15:08:29.052Z,17.51
2019-02-24T15:11:20.763Z,17.61
2019-02-24T15:13:38.231Z,17.92
2019-02-24T15:16:08.971Z,17.76
2019-02-24T15:18:43.582Z,17.91
2019-02-24T15:21:14.507Z,17.98
2019-02-24T15:23:51.304Z,18.22
2019-02-24T15:26:22.044Z,18.14
2019-02-24T15:28:52.714Z,18.01
2019-02-24T15:31:23.017Z,18.12
2019-02-24T15:33:53.635Z,18.40
2019-02-24T15:36:25.585Z,18.58
2019-02-24T15:38:56.027Z,17.95
2019-02-24T15:41:29.734Z,18.25
2019-02-24T15:44:00.673Z,18.48
2019-02-24T15:46:54.817Z,17.95
2019-02-24T15:49:15.588Z,18.35
2019-02-24T15:51:45.987Z,18.52
2019-02-24T15:54:44.706Z,18.34
2019-02-24T15:56:55.229Z,18.38
2019-02-24T15:59:25.723Z,18.69
2019-02-24T16:02:00.854Z,18.92
2019-02-24T16:04:32.822Z,18.95
2019-02-24T16:07:03.286Z,18.91
2019-02-24T16:09:34.029Z,19.00
2019-02-24T16:12:04.399Z,18.85
2019-02-24T16:14:35.109Z,19.06
2019-02-24T16:17:11.584Z,19.16
2019-02-24T16:19:46.949Z,18.97
2019-02-24T16:22:19.256Z,18.48
2019-02-24T16:24:54.349Z,18.48
2019-02-24T16:27:27.068Z,18.91
2019-02-24T16:30:00.015Z,19.03
2019-02-24T16:32:34.488Z,19.10
2019-02-24T16:35:06.708Z,19.21
2019-02-24T16:37:40.452Z,19.79
2019-02-24T16:40:13.898Z,20.32
2019-02-24T16:42:48.307Z,20.68
2019-02-24T16:45:18.684Z,21.16
2019-02-24T16:48:00.692Z,21.65
2019-02-24T16:50:25.949Z,22.24
2019-02-24T16:52:59.616Z,22.80
2019-02-24T16:55:32.595Z,23.25
2019-02-24T16:58:05.914Z,23.50
2019-02-24T17:00:36.278Z,23.59
2019-02-24T17:03:09.309Z,23.52
2019-02-24T17:05:43.758Z,23.55
2019-02-24T17:08:18.418Z,23.64
2019-02-24T17:10:49.215Z,23.75
2019-02-24T17:13:20.141Z,23.99
2019-02-24T17:15:56.546Z,24.06
2019-02-24T17:18:29.896Z,23.99
2019-02-24T17:21:04.691Z,23.96
2019-02-24T17:23:34.707Z,24.12
2019-02-24T17:26:05.297Z,24.19
2019-02-24T17:28:36.992Z,24.38
2019-02-24T17:31:09.000Z,24.76
2019-02-24T17:33:39.612Z,25.23
2019-02-24T17:36:11.880Z,25.40
2019-02-24T17:38:44.418Z,25.51
2019-02-24T17:41:14.755Z,25.64
2019-02-24T17:43:55.654Z,25.93
2019-02-24T17:46:39.195Z,25.50
2019-02-24T17:49:11.365Z,25.39
2019-02-24T17:51:46.856Z,25.57
2019-02-24T17:54:20.864Z,25.73
2019-02-24T17:56:51.162Z,25.56
2019-02-24T17:59:24.304Z,25.65
2019-02-24T18:02:25.999Z,25.85
2019-02-24T18:04:57.956Z,25.61
2019-02-24T18:07:28.279Z,25.30
2019-02-24T18:10:00.356Z,25.16
2019-02-24T18:12:32.404Z,24.83
2019-02-24T18:15:05.574Z,24.61
2019-02-24T18:17:42.730Z,24.66
2019-02-24T18:20:14.523Z,24.47
2019-02-24T18:22:45.185Z,24.74
2019-02-24T18:25:15.636Z,24.99
2019-02-24T18:27:45.986Z,24.60
2019-02-24T18:30:23.374Z,24.49
2019-02-24T18:33:25.514Z,24.52
2019-02-24T18:36:02.398Z,24.72
2019-02-24T18:38:35.266Z,24.81
2019-02-24T18:41:10.293Z,24.80
2019-02-24T18:43:51.078Z,25.00
2019-02-24T18:46:16.064Z,25.33
2019-02-24T18:48:49.743Z,25.33
2019-02-24T18:51:23.298Z,25.46
2019-02-24T18:53:56.061Z,25.48
2019-02-24T18:56:31.722Z,25.54
2019-02-24T18:59:03.283Z,25.73
2019-02-24T19:01:34.023Z,26.08
2019-02-24T19:04:04.768Z,26.38
2019-02-24T19:06:39.366Z,26.50
2019-02-24T19:09:09.492Z,26.74
2019-02-24T19:11:42.821Z,26.95
2019-02-24T19:14:13.515Z,27.13
2019-02-24T19:16:45.362Z,27.42
2019-02-24T19:19:25.634Z,28.27
2019-02-24T19:21:52.392Z,28.27
2019-02-24T19:24:24.425Z,28.62
2019-02-24T19:27:03.783Z,28.76
2019-02-24T19:29:31.418Z,29.09
2019-02-24T19:32:07.951Z,29.32
2019-02-24T19:34:44.683Z,29.56
2019-02-24T19:37:24.149Z,29.82
2019-02-24T19:39:54.649Z,29.95
2019-02-24T19:42:33.785Z,29.97
2019-02-24T19:45:08.910Z,30.15
2019-02-24T19:47:43.831Z,30.06
2019-02-24T19:50:26.970Z,30.03
2019-02-24T19:53:16.937Z,30.16
2019-02-24T19:55:50.185Z,30.41
2019-02-24T19:58:23.123Z,30.70
2019-02-24T20:00:59.964Z,30.72
2019-02-24T20:03:31.951Z,30.74
2019-02-24T20:06:05.524Z,30.88
2019-02-24T20:08:43.632Z,31.05
2019-02-24T20:11:14.207Z,31.08
2019-02-24T20:13:48.056Z,31.22
2019-02-24T20:16:27.791Z,31.54
2019-02-24T20:18:58.046Z,31.77
2019-02-24T20:21:31.266Z,31.95
2019-02-24T20:24:01.903Z,32.44
2019-02-24T20:26:32.255Z,32.33
2019-02-24T20:29:04.655Z,32.27
2019-02-24T20:31:38.423Z,32.77
2019-02-24T20:34:08.443Z,33.01
2019-02-24T20:36:54.008Z,33.13
2019-02-24T20:39:27.445Z,33.14
2019-02-24T20:42:00.043Z,33.11
2019-02-24T20:44:32.151Z,33.22
2019-02-24T20:47:05.025Z,33.26
2019-02-24T20:49:35.848Z,33.25
2019-02-24T20:52:08.007Z,33.20
2019-02-24T20:54:45.332Z,33.14
2019-02-24T20:57:20.270Z,33.16
2019-02-24T20:59:50.836Z,33.23
2019-02-24T21:02:33.762Z,33.36
2019-02-24T21:05:42.852Z,33.42
2019-02-24T21:07:46.488Z,33.54
2019-02-24T21:10:16.820Z,33.73
2019-02-24T21:13:01.067Z,33.98
2019-02-24T21:15:22.453Z,34.11
2019-02-24T21:17:53.233Z,34.24
2019-02-24T21:20:30.213Z,34.40
2019-02-24T21:23:04.430Z,34.57
2019-02-24T21:25:34.685Z,34.85
2019-02-24T21:28:05.375Z,35.20
2019-02-24T21:30:38.049Z,35.26
2019-02-24T21:33:09.073Z,35.48
2019-02-24T21:35:39.423Z,35.88
2019-02-24T21:38:15.743Z,35.88
2019-02-24T21:40:44.749Z,35.78
2019-02-24T21:43:16.776Z,35.76
2019-02-24T21:45:47.120Z,35.47
2019-02-24T21:48:20.246Z,35.72
2019-02-24T21:50:50.901Z,35.99
2019-02-24T21:53:21.273Z,35.87
2019-02-24T21:55:55.158Z,35.74
2019-02-24T21:58:24.386Z,35.75
2019-02-24T22:00:54.984Z,35.76
2019-02-24T22:03:33.813Z,35.86
2019-02-24T22:06:08.178Z,35.87
2019-02-24T22:08:38.789Z,35.84
2019-02-24T22:11:10.515Z,35.70
2019-02-24T22:13:49.002Z,35.41
2019-02-24T22:16:29.098Z,35.22
2019-02-24T22:18:59.477Z,34.73
2019-02-24T22:21:30.087Z,34.67
2019-02-24T22:24:03.504Z,34.75
2019-02-24T22:26:33.786Z,35.13
2019-02-24T22:29:04.510Z,35.47
2019-02-24T22:31:39.310Z,36.62
2019-02-24T22:34:14.145Z,37.22
2019-02-24T22:36:46.084Z,37.66
2019-02-24T22:39:16.958Z,38.19
2019-02-24T22:41:47.310Z,38.77
2019-02-24T22:44:17.984Z,38.97
2019-02-24T22:46:49.924Z,39.03
2019-02-24T22:49:20.673Z,39.31
2019-02-24T22:51:56.207Z,39.72
2019-02-24T22:54:27.174Z,40.03
2019-02-24T22:56:57.568Z,40.25
2019-02-24T22:59:32.825Z,40.50
2019-02-24T23:02:06.041Z,40.79
2019-02-24T23:04:36.681Z,41.23
2019-02-24T23:07:08.041Z,41.35
2019-02-24T23:09:38.645Z,41.41
2019-02-24T23:12:08.937Z,41.50
2019-02-24T23:14:39.498Z,41.61
2019-02-24T23:17:11.127Z,42.00
2019-02-24T23:19:43.034Z,42.09
2019-02-24T23:22:13.445Z,42.08
2019-02-24T23:24:52.859Z,42.22
2019-02-24T23:27:23.208Z,42.42
2019-02-24T23:29:53.564Z,42.60
2019-02-24T23:32:24.222Z,42.74
2019-02-24T23:34:59.711Z,42.99
2019-02-24T23:37:32.754Z,43.19
2019-02-24T23:40:03.379Z,43.51
2019-02-24T23:42:37.432Z,43.68
2019-02-24T23:45:10.455Z,43.80
2019-02-24T23:47:40.031Z,44.07
2019-02-24T23:50:13.545Z,44.12
2019-02-24T23:52:50.484Z,44.38
2019-02-24T23:55:20.995Z,44.66
2019-02-24T23:57:52.708Z,44.83
